sensor_id;sensor_type;location;lat;lon;timestamp;P1;durP1;ratioP1;P2;durP2;ratioP2
21245;SDS011;10781;50.928;4.440;2022-09-13T00:01:12;24.98;;;23.38;;
21245;SDS011;10781;50.928;4.440;2022-09-13T00:03:38;24.95;;;22.75;;
21245;SDS011;10781;50.928;4.440;2022-09-13T00:06:08;25.25;;;23.40;;
21245;SDS011;10781;50.928;4.440;2022-09-13T00:08:39;27.38;;;25.02;;
21245;SDS011;10781;50.928;4.440;2022-09-13T00:11:05;27.20;;;24.92;;
21245;SDS011;10781;50.928;4.440;2022-09-13T00:13:32;26.92;;;24.58;;
21245;SDS011;10781;50.928;4.440;2022-09-13T00:15:57;26.98;;;24.25;;
21245;SDS011;10781;50.928;4.440;2022-09-13T00:18:25;27.17;;;24.35;;
21245;SDS011;10781;50.928;4.440;2022-09-13T00:20:50;27.25;;;24.75;;
21245;SDS011;10781;50.928;4.440;2022-09-13T00:23:16;32.78;;;26.20;;
21245;SDS011;10781;50.928;4.440;2022-09-13T00:25:42;28.48;;;25.48;;
21245;SDS011;10781;50.928;4.440;2022-09-13T00:28:08;29.65;;;24.65;;
21245;SDS011;10781;50.928;4.440;2022-09-13T00:30:33;28.70;;;24.65;;
21245;SDS011;10781;50.928;4.440;2022-09-13T00:32:59;25.00;;;23.30;;
21245;SDS011;10781;50.928;4.440;2022-09-13T00:35:28;26.33;;;23.92;;
21245;SDS011;10781;50.928;4.440;2022-09-13T00:37:54;27.00;;;24.83;;
21245;SDS011;10781;50.928;4.440;2022-09-13T00:40:19;25.00;;;23.17;;
21245;SDS011;10781;50.928;4.440;2022-09-13T00:42:45;25.35;;;23.77;;
21245;SDS011;10781;50.928;4.440;2022-09-13T00:47:48;23.90;;;22.50;;
21245;SDS011;10781;50.928;4.440;2022-09-13T00:52:53;24.52;;;23.00;;
21245;SDS011;10781;50.928;4.440;2022-09-13T00:55:34;24.60;;;23.13;;
21245;SDS011;10781;50.928;4.440;2022-09-13T00:58:32;25.23;;;23.75;;
21245;SDS011;10781;50.928;4.440;2022-09-13T01:01:01;24.77;;;23.33;;
21245;SDS011;10781;50.928;4.440;2022-09-13T01:03:29;23.55;;;22.17;;
21245;SDS011;10781;50.928;4.440;2022-09-13T01:06:02;24.85;;;23.20;;
21245;SDS011;10781;50.928;4.440;2022-09-13T01:08:37;23.25;;;22.05;;
21245;SDS011;10781;50.928;4.440;2022-09-13T01:11:05;24.65;;;23.08;;
21245;SDS011;10781;50.928;4.440;2022-09-13T01:13:39;24.55;;;23.05;;
21245;SDS011;10781;50.928;4.440;2022-09-13T01:16:05;24.88;;;23.48;;
21245;SDS011;10781;50.928;4.440;2022-09-13T01:18:32;24.52;;;23.02;;
21245;SDS011;10781;50.928;4.440;2022-09-13T01:26:34;23.83;;;22.45;;
21245;SDS011;10781;50.928;4.440;2022-09-13T01:46:08;22.95;;;21.85;;
21245;SDS011;10781;50.928;4.440;2022-09-13T01:56:42;23.77;;;22.45;;
21245;SDS011;10781;50.928;4.440;2022-09-13T01:59:22;23.35;;;22.08;;
21245;SDS011;10781;50.928;4.440;2022-09-13T02:01:55;22.40;;;21.20;;
21245;SDS011;10781;50.928;4.440;2022-09-13T02:04:28;24.48;;;23.23;;
21245;SDS011;10781;50.928;4.440;2022-09-13T02:09:30;23.67;;;22.55;;
21245;SDS011;10781;50.928;4.440;2022-09-13T02:12:02;23.25;;;21.85;;
21245;SDS011;10781;50.928;4.440;2022-09-13T02:14:37;24.40;;;22.80;;
21245;SDS011;10781;50.928;4.440;2022-09-13T02:17:38;25.38;;;23.98;;
21245;SDS011;10781;50.928;4.440;2022-09-13T02:20:05;23.85;;;22.75;;
21245;SDS011;10781;50.928;4.440;2022-09-13T02:22:38;23.48;;;22.27;;
21245;SDS011;10781;50.928;4.440;2022-09-13T02:25:11;24.40;;;23.10;;
21245;SDS011;10781;50.928;4.440;2022-09-13T02:27:40;23.75;;;22.40;;
21245;SDS011;10781;50.928;4.440;2022-09-13T02:30:09;25.42;;;23.98;;
21245;SDS011;10781;50.928;4.440;2022-09-13T02:32:37;24.50;;;22.90;;
21245;SDS011;10781;50.928;4.440;2022-09-13T02:35:15;23.98;;;22.67;;
21245;SDS011;10781;50.928;4.440;2022-09-13T02:37:47;23.70;;;22.52;;
21245;SDS011;10781;50.928;4.440;2022-09-13T02:40:23;24.90;;;23.50;;
21245;SDS011;10781;50.928;4.440;2022-09-13T02:43:03;23.70;;;22.48;;
21245;SDS011;10781;50.928;4.440;2022-09-13T02:45:35;24.30;;;23.05;;
21245;SDS011;10781;50.928;4.440;2022-09-13T02:48:24;25.17;;;23.88;;
21245;SDS011;10781;50.928;4.440;2022-09-13T02:51:09;24.25;;;22.95;;
21245;SDS011;10781;50.928;4.440;2022-09-13T02:59:27;26.13;;;24.55;;
21245;SDS011;10781;50.928;4.440;2022-09-13T03:01:57;25.35;;;23.95;;
21245;SDS011;10781;50.928;4.440;2022-09-13T03:04:29;25.70;;;24.35;;
21245;SDS011;10781;50.928;4.440;2022-09-13T03:06:56;25.80;;;24.15;;
21245;SDS011;10781;50.928;4.440;2022-09-13T03:09:22;25.05;;;23.70;;
21245;SDS011;10781;50.928;4.440;2022-09-13T03:15:15;24.75;;;23.45;;
21245;SDS011;10781;50.928;4.440;2022-09-13T03:20:07;25.55;;;23.60;;
21245;SDS011;10781;50.928;4.440;2022-09-13T03:30:48;24.98;;;23.45;;
21245;SDS011;10781;50.928;4.440;2022-09-13T03:33:23;25.88;;;24.20;;
21245;SDS011;10781;50.928;4.440;2022-09-13T03:41:04;25.00;;;23.35;;
21245;SDS011;10781;50.928;4.440;2022-09-13T03:43:46;24.05;;;22.77;;
21245;SDS011;10781;50.928;4.440;2022-09-13T03:46:16;24.48;;;23.17;;
21245;SDS011;10781;50.928;4.440;2022-09-13T03:48:47;24.10;;;22.60;;
21245;SDS011;10781;50.928;4.440;2022-09-13T03:51:14;25.45;;;23.95;;
21245;SDS011;10781;50.928;4.440;2022-09-13T03:53:41;25.30;;;23.75;;
21245;SDS011;10781;50.928;4.440;2022-09-13T03:56:11;25.38;;;23.33;;
21245;SDS011;10781;50.928;4.440;2022-09-13T03:58:41;24.50;;;23.30;;
21245;SDS011;10781;50.928;4.440;2022-09-13T04:01:07;25.60;;;24.10;;
21245;SDS011;10781;50.928;4.440;2022-09-13T04:03:34;25.38;;;23.98;;
21245;SDS011;10781;50.928;4.440;2022-09-13T04:06:01;24.15;;;22.67;;
21245;SDS011;10781;50.928;4.440;2022-09-13T04:08:26;25.15;;;23.52;;
21245;SDS011;10781;50.928;4.440;2022-09-13T04:10:52;25.40;;;23.80;;
21245;SDS011;10781;50.928;4.440;2022-09-13T04:13:18;25.17;;;23.17;;
21245;SDS011;10781;50.928;4.440;2022-09-13T04:15:46;27.90;;;25.83;;
21245;SDS011;10781;50.928;4.440;2022-09-13T04:18:12;24.70;;;23.38;;
21245;SDS011;10781;50.928;4.440;2022-09-13T04:20:37;25.20;;;23.70;;
21245;SDS011;10781;50.928;4.440;2022-09-13T04:23:03;25.33;;;23.70;;
21245;SDS011;10781;50.928;4.440;2022-09-13T04:25:28;26.67;;;24.40;;
21245;SDS011;10781;50.928;4.440;2022-09-13T04:27:55;25.45;;;23.70;;
21245;SDS011;10781;50.928;4.440;2022-09-13T04:30:23;25.48;;;23.73;;
21245;SDS011;10781;50.928;4.440;2022-09-13T04:32:49;24.55;;;22.65;;
21245;SDS011;10781;50.928;4.440;2022-09-13T04:35:15;24.38;;;22.67;;
21245;SDS011;10781;50.928;4.440;2022-09-13T04:37:42;24.67;;;22.83;;
21245;SDS011;10781;50.928;4.440;2022-09-13T04:40:08;25.35;;;23.58;;
21245;SDS011;10781;50.928;4.440;2022-09-13T04:42:34;25.15;;;23.58;;
21245;SDS011;10781;50.928;4.440;2022-09-13T04:45:00;25.23;;;23.52;;
21245;SDS011;10781;50.928;4.440;2022-09-13T04:47:26;26.88;;;24.95;;
21245;SDS011;10781;50.928;4.440;2022-09-13T04:49:51;27.33;;;25.42;;
21245;SDS011;10781;50.928;4.440;2022-09-13T04:52:17;26.50;;;24.75;;
21245;SDS011;10781;50.928;4.440;2022-09-13T04:54:43;26.33;;;24.38;;
21245;SDS011;10781;50.928;4.440;2022-09-13T04:57:08;25.55;;;23.90;;
21245;SDS011;10781;50.928;4.440;2022-09-13T04:59:34;26.10;;;24.17;;
21245;SDS011;10781;50.928;4.440;2022-09-13T05:01:59;25.45;;;23.73;;
21245;SDS011;10781;50.928;4.440;2022-09-13T05:04:25;25.23;;;23.63;;
21245;SDS011;10781;50.928;4.440;2022-09-13T05:06:52;25.77;;;24.00;;
21245;SDS011;10781;50.928;4.440;2022-09-13T05:09:17;25.27;;;23.33;;
21245;SDS011;10781;50.928;4.440;2022-09-13T05:11:43;26.23;;;24.05;;
21245;SDS011;10781;50.928;4.440;2022-09-13T05:14:09;27.52;;;25.08;;
21245;SDS011;10781;50.928;4.440;2022-09-13T05:16:36;25.27;;;23.02;;
21245;SDS011;10781;50.928;4.440;2022-09-13T05:19:02;25.50;;;23.60;;
21245;SDS011;10781;50.928;4.440;2022-09-13T05:21:27;25.98;;;23.77;;
21245;SDS011;10781;50.928;4.440;2022-09-13T05:23:55;25.45;;;23.85;;
21245;SDS011;10781;50.928;4.440;2022-09-13T05:26:22;26.88;;;24.92;;
21245;SDS011;10781;50.928;4.440;2022-09-13T05:28:49;25.38;;;23.63;;
21245;SDS011;10781;50.928;4.440;2022-09-13T05:31:16;26.30;;;24.13;;
21245;SDS011;10781;50.928;4.440;2022-09-13T05:33:52;26.50;;;25.10;;
21245;SDS011;10781;50.928;4.440;2022-09-13T05:36:22;24.90;;;23.38;;
21245;SDS011;10781;50.928;4.440;2022-09-13T05:38:50;26.40;;;24.85;;
21245;SDS011;10781;50.928;4.440;2022-09-13T05:41:16;24.92;;;23.50;;
21245;SDS011;10781;50.928;4.440;2022-09-13T05:43:42;24.80;;;23.45;;
21245;SDS011;10781;50.928;4.440;2022-09-13T05:46:14;25.70;;;24.05;;
21245;SDS011;10781;50.928;4.440;2022-09-13T05:48:43;25.42;;;23.92;;
21245;SDS011;10781;50.928;4.440;2022-09-13T05:51:19;25.88;;;24.30;;
21245;SDS011;10781;50.928;4.440;2022-09-13T05:53:50;25.88;;;24.00;;
21245;SDS011;10781;50.928;4.440;2022-09-13T05:56:17;27.20;;;25.20;;
21245;SDS011;10781;50.928;4.440;2022-09-13T05:58:45;26.00;;;24.05;;
21245;SDS011;10781;50.928;4.440;2022-09-13T06:01:12;24.63;;;23.05;;
21245;SDS011;10781;50.928;4.440;2022-09-13T06:03:38;24.67;;;23.15;;
21245;SDS011;10781;50.928;4.440;2022-09-13T06:06:05;24.77;;;23.17;;
21245;SDS011;10781;50.928;4.440;2022-09-13T06:08:32;25.58;;;23.67;;
21245;SDS011;10781;50.928;4.440;2022-09-13T06:11:00;25.77;;;24.25;;
21245;SDS011;10781;50.928;4.440;2022-09-13T06:13:29;26.25;;;24.27;;
21245;SDS011;10781;50.928;4.440;2022-09-13T06:15:56;25.35;;;23.80;;
21245;SDS011;10781;50.928;4.440;2022-09-13T06:18:23;26.15;;;24.52;;
21245;SDS011;10781;50.928;4.440;2022-09-13T06:20:50;27.15;;;24.90;;
21245;SDS011;10781;50.928;4.440;2022-09-13T06:23:21;25.42;;;23.20;;
21245;SDS011;10781;50.928;4.440;2022-09-13T06:25:47;26.42;;;24.15;;
21245;SDS011;10781;50.928;4.440;2022-09-13T06:28:12;25.27;;;23.20;;
21245;SDS011;10781;50.928;4.440;2022-09-13T06:30:38;25.25;;;23.25;;
21245;SDS011;10781;50.928;4.440;2022-09-13T06:33:03;26.70;;;24.55;;
21245;SDS011;10781;50.928;4.440;2022-09-13T06:35:29;25.13;;;23.27;;
21245;SDS011;10781;50.928;4.440;2022-09-13T06:37:55;26.05;;;23.50;;
21245;SDS011;10781;50.928;4.440;2022-09-13T06:40:22;25.83;;;24.00;;
21245;SDS011;10781;50.928;4.440;2022-09-13T06:42:48;24.05;;;22.50;;
21245;SDS011;10781;50.928;4.440;2022-09-13T06:45:14;25.60;;;23.50;;
21245;SDS011;10781;50.928;4.440;2022-09-13T06:47:39;25.58;;;23.73;;
21245;SDS011;10781;50.928;4.440;2022-09-13T06:50:05;25.70;;;23.80;;
21245;SDS011;10781;50.928;4.440;2022-09-13T06:52:31;26.25;;;24.38;;
21245;SDS011;10781;50.928;4.440;2022-09-13T06:54:57;27.02;;;25.23;;
21245;SDS011;10781;50.928;4.440;2022-09-13T06:57:23;25.30;;;23.48;;
21245;SDS011;10781;50.928;4.440;2022-09-13T06:59:48;26.55;;;24.48;;
21245;SDS011;10781;50.928;4.440;2022-09-13T07:02:14;26.00;;;24.30;;
21245;SDS011;10781;50.928;4.440;2022-09-13T07:04:40;25.40;;;23.65;;
21245;SDS011;10781;50.928;4.440;2022-09-13T07:07:05;26.48;;;24.75;;
21245;SDS011;10781;50.928;4.440;2022-09-13T07:09:31;25.50;;;23.67;;
21245;SDS011;10781;50.928;4.440;2022-09-13T07:11:58;25.33;;;23.77;;
21245;SDS011;10781;50.928;4.440;2022-09-13T07:14:25;25.65;;;24.00;;
21245;SDS011;10781;50.928;4.440;2022-09-13T07:16:52;24.77;;;22.92;;
21245;SDS011;10781;50.928;4.440;2022-09-13T07:19:19;24.75;;;23.15;;
21245;SDS011;10781;50.928;4.440;2022-09-13T07:21:50;25.15;;;23.55;;
21245;SDS011;10781;50.928;4.440;2022-09-13T07:24:17;24.45;;;22.95;;
21245;SDS011;10781;50.928;4.440;2022-09-13T07:26:43;26.45;;;24.63;;
21245;SDS011;10781;50.928;4.440;2022-09-13T07:29:12;25.35;;;23.58;;
21245;SDS011;10781;50.928;4.440;2022-09-13T07:31:40;25.15;;;23.60;;
21245;SDS011;10781;50.928;4.440;2022-09-13T07:34:10;24.50;;;23.00;;
21245;SDS011;10781;50.928;4.440;2022-09-13T07:36:41;26.27;;;24.60;;
21245;SDS011;10781;50.928;4.440;2022-09-13T07:39:07;27.15;;;25.13;;
21245;SDS011;10781;50.928;4.440;2022-09-13T07:41:33;27.38;;;25.25;;
21245;SDS011;10781;50.928;4.440;2022-09-13T07:44:00;24.33;;;22.27;;
21245;SDS011;10781;50.928;4.440;2022-09-13T07:46:26;26.27;;;23.73;;
21245;SDS011;10781;50.928;4.440;2022-09-13T07:48:57;26.38;;;23.65;;
21245;SDS011;10781;50.928;4.440;2022-09-13T07:51:25;25.92;;;22.80;;
21245;SDS011;10781;50.928;4.440;2022-09-13T07:53:54;26.38;;;23.70;;
21245;SDS011;10781;50.928;4.440;2022-09-13T07:56:22;26.98;;;24.10;;
21245;SDS011;10781;50.928;4.440;2022-09-13T07:58:52;27.15;;;24.52;;
21245;SDS011;10781;50.928;4.440;2022-09-13T08:01:22;25.88;;;23.35;;
21245;SDS011;10781;50.928;4.440;2022-09-13T08:03:54;24.98;;;22.65;;
21245;SDS011;10781;50.928;4.440;2022-09-13T08:06:20;26.33;;;22.48;;
21245;SDS011;10781;50.928;4.440;2022-09-13T08:08:46;26.15;;;23.92;;
21245;SDS011;10781;50.928;4.440;2022-09-13T08:11:22;25.83;;;23.27;;
21245;SDS011;10781;50.928;4.440;2022-09-13T08:13:54;25.98;;;22.70;;
21245;SDS011;10781;50.928;4.440;2022-09-13T08:16:20;27.92;;;25.08;;
21245;SDS011;10781;50.928;4.440;2022-09-13T08:18:48;26.55;;;24.33;;
21245;SDS011;10781;50.928;4.440;2022-09-13T08:21:15;27.08;;;24.48;;
21245;SDS011;10781;50.928;4.440;2022-09-13T08:23:40;27.45;;;24.83;;
21245;SDS011;10781;50.928;4.440;2022-09-13T08:26:07;28.75;;;26.00;;
21245;SDS011;10781;50.928;4.440;2022-09-13T08:28:37;26.90;;;24.45;;
21245;SDS011;10781;50.928;4.440;2022-09-13T08:31:13;26.60;;;24.40;;
21245;SDS011;10781;50.928;4.440;2022-09-13T08:33:45;26.75;;;24.58;;
21245;SDS011;10781;50.928;4.440;2022-09-13T08:36:12;25.48;;;23.05;;
21245;SDS011;10781;50.928;4.440;2022-09-13T08:38:43;27.33;;;24.83;;
21245;SDS011;10781;50.928;4.440;2022-09-13T08:44:25;26.38;;;24.45;;
21245;SDS011;10781;50.928;4.440;2022-09-13T08:49:38;25.10;;;23.45;;
21245;SDS011;10781;50.928;4.440;2022-09-13T08:52:28;24.42;;;22.77;;
21245;SDS011;10781;50.928;4.440;2022-09-13T08:55:01;25.00;;;23.15;;
21245;SDS011;10781;50.928;4.440;2022-09-13T08:57:38;26.55;;;25.00;;
21245;SDS011;10781;50.928;4.440;2022-09-13T09:00:22;24.13;;;22.63;;
21245;SDS011;10781;50.928;4.440;2022-09-13T09:03:05;27.80;;;26.10;;
21245;SDS011;10781;50.928;4.440;2022-09-13T09:05:42;26.58;;;24.67;;
21245;SDS011;10781;50.928;4.440;2022-09-13T09:08:16;26.90;;;25.10;;
21245;SDS011;10781;50.928;4.440;2022-09-13T09:10:48;24.02;;;22.33;;
21245;SDS011;10781;50.928;4.440;2022-09-13T09:16:00;24.95;;;23.55;;
21245;SDS011;10781;50.928;4.440;2022-09-13T09:18:39;26.67;;;24.88;;
21245;SDS011;10781;50.928;4.440;2022-09-13T09:21:11;25.33;;;23.70;;
21245;SDS011;10781;50.928;4.440;2022-09-13T09:31:40;23.80;;;21.98;;
21245;SDS011;10781;50.928;4.440;2022-09-13T09:37:18;25.08;;;23.45;;
21245;SDS011;10781;50.928;4.440;2022-09-13T09:39:49;25.42;;;23.83;;
21245;SDS011;10781;50.928;4.440;2022-09-13T09:42:20;23.90;;;22.10;;
21245;SDS011;10781;50.928;4.440;2022-09-13T09:44:50;24.75;;;23.15;;
21245;SDS011;10781;50.928;4.440;2022-09-13T09:47:21;23.27;;;21.77;;
21245;SDS011;10781;50.928;4.440;2022-09-13T09:57:54;23.95;;;22.23;;
21245;SDS011;10781;50.928;4.440;2022-09-13T10:00:31;25.23;;;23.73;;
21245;SDS011;10781;50.928;4.440;2022-09-13T10:03:01;23.02;;;21.52;;
21245;SDS011;10781;50.928;4.440;2022-09-13T10:05:33;23.45;;;21.95;;
21245;SDS011;10781;50.928;4.440;2022-09-13T10:08:00;22.65;;;21.35;;
21245;SDS011;10781;50.928;4.440;2022-09-13T10:10:39;24.20;;;22.65;;
21245;SDS011;10781;50.928;4.440;2022-09-13T10:13:11;25.73;;;24.00;;
21245;SDS011;10781;50.928;4.440;2022-09-13T10:15:51;24.15;;;22.80;;
21245;SDS011;10781;50.928;4.440;2022-09-13T10:18:19;23.95;;;22.42;;
21245;SDS011;10781;50.928;4.440;2022-09-13T10:21:06;24.48;;;23.00;;
21245;SDS011;10781;50.928;4.440;2022-09-13T10:23:41;24.25;;;22.65;;
21245;SDS011;10781;50.928;4.440;2022-09-13T10:26:11;25.67;;;23.73;;
21245;SDS011;10781;50.928;4.440;2022-09-13T10:31:46;25.65;;;23.95;;
21245;SDS011;10781;50.928;4.440;2022-09-13T10:34:24;24.95;;;23.10;;
21245;SDS011;10781;50.928;4.440;2022-09-13T10:37:01;23.92;;;22.33;;
21245;SDS011;10781;50.928;4.440;2022-09-13T10:42:55;25.48;;;23.77;;
21245;SDS011;10781;50.928;4.440;2022-09-13T10:45:23;25.70;;;23.63;;
21245;SDS011;10781;50.928;4.440;2022-09-13T10:47:54;23.70;;;22.08;;
21245;SDS011;10781;50.928;4.440;2022-09-13T10:50:35;23.40;;;22.17;;
21245;SDS011;10781;50.928;4.440;2022-09-13T10:53:01;22.90;;;21.48;;
21245;SDS011;10781;50.928;4.440;2022-09-13T11:06:57;21.65;;;20.35;;
21245;SDS011;10781;50.928;4.440;2022-09-13T11:20:17;23.13;;;21.55;;
21245;SDS011;10781;50.928;4.440;2022-09-13T11:39:37;20.48;;;19.38;;
21245;SDS011;10781;50.928;4.440;2022-09-13T11:56:00;23.92;;;22.27;;
21245;SDS011;10781;50.928;4.440;2022-09-13T11:58:49;22.10;;;20.80;;
21245;SDS011;10781;50.928;4.440;2022-09-13T12:01:50;22.23;;;20.73;;
21245;SDS011;10781;50.928;4.440;2022-09-13T12:04:39;22.58;;;21.17;;
21245;SDS011;10781;50.928;4.440;2022-09-13T12:07:18;22.80;;;21.52;;
21245;SDS011;10781;50.928;4.440;2022-09-13T12:09:59;24.27;;;22.45;;
21245;SDS011;10781;50.928;4.440;2022-09-13T12:12:32;23.70;;;22.30;;
21245;SDS011;10781;50.928;4.440;2022-09-13T12:15:06;22.92;;;21.42;;
21245;SDS011;10781;50.928;4.440;2022-09-13T12:17:47;23.17;;;21.85;;
21245;SDS011;10781;50.928;4.440;2022-09-13T12:22:57;23.77;;;22.10;;
21245;SDS011;10781;50.928;4.440;2022-09-13T12:25:30;22.38;;;20.90;;
21245;SDS011;10781;50.928;4.440;2022-09-13T12:31:14;26.02;;;24.40;;
21245;SDS011;10781;50.928;4.440;2022-09-13T12:33:43;23.10;;;21.75;;
21245;SDS011;10781;50.928;4.440;2022-09-13T12:41:49;26.00;;;24.45;;
21245;SDS011;10781;50.928;4.440;2022-09-13T12:44:36;24.50;;;23.10;;
21245;SDS011;10781;50.928;4.440;2022-09-13T12:52:33;25.77;;;24.05;;
21245;SDS011;10781;50.928;4.440;2022-09-13T13:00:40;23.67;;;22.27;;
21245;SDS011;10781;50.928;4.440;2022-09-13T13:10:44;25.33;;;23.50;;
21245;SDS011;10781;50.928;4.440;2022-09-13T13:13:44;25.35;;;23.27;;
21245;SDS011;10781;50.928;4.440;2022-09-13T13:16:30;24.83;;;23.10;;
21245;SDS011;10781;50.928;4.440;2022-09-13T13:18:59;24.08;;;22.48;;
21245;SDS011;10781;50.928;4.440;2022-09-13T13:21:43;25.92;;;24.23;;
21245;SDS011;10781;50.928;4.440;2022-09-13T13:34:35;25.50;;;23.80;;
21245;SDS011;10781;50.928;4.440;2022-09-13T13:39:41;24.20;;;22.70;;
21245;SDS011;10781;50.928;4.440;2022-09-13T13:42:12;27.48;;;25.52;;
21245;SDS011;10781;50.928;4.440;2022-09-13T13:49:43;24.92;;;23.40;;
21245;SDS011;10781;50.928;4.440;2022-09-13T14:00:13;26.25;;;24.23;;
21245;SDS011;10781;50.928;4.440;2022-09-13T14:02:58;26.70;;;24.52;;
21245;SDS011;10781;50.928;4.440;2022-09-13T14:05:59;25.08;;;23.33;;
21245;SDS011;10781;50.928;4.440;2022-09-13T14:11:19;25.02;;;23.15;;
21245;SDS011;10781;50.928;4.440;2022-09-13T14:13:57;25.27;;;23.75;;
21245;SDS011;10781;50.928;4.440;2022-09-13T14:16:36;24.98;;;23.52;;
21245;SDS011;10781;50.928;4.440;2022-09-13T14:19:30;26.08;;;24.52;;
21245;SDS011;10781;50.928;4.440;2022-09-13T14:22:05;24.90;;;23.25;;
21245;SDS011;10781;50.928;4.440;2022-09-13T14:24:39;27.35;;;25.42;;
21245;SDS011;10781;50.928;4.440;2022-09-13T14:27:17;25.73;;;24.10;;
21245;SDS011;10781;50.928;4.440;2022-09-13T14:29:58;27.52;;;25.83;;
21245;SDS011;10781;50.928;4.440;2022-09-13T14:32:28;26.85;;;24.90;;
21245;SDS011;10781;50.928;4.440;2022-09-13T14:35:01;25.38;;;23.88;;
21245;SDS011;10781;50.928;4.440;2022-09-13T14:37:29;26.27;;;24.63;;
21245;SDS011;10781;50.928;4.440;2022-09-13T14:40:05;24.20;;;22.55;;
21245;SDS011;10781;50.928;4.440;2022-09-13T14:42:46;25.95;;;24.45;;
21245;SDS011;10781;50.928;4.440;2022-09-13T14:45:14;26.15;;;24.40;;
21245;SDS011;10781;50.928;4.440;2022-09-13T14:50:12;25.88;;;24.38;;
21245;SDS011;10781;50.928;4.440;2022-09-13T14:53:23;27.77;;;25.92;;
21245;SDS011;10781;50.928;4.440;2022-09-13T14:55:36;28.50;;;26.42;;
21245;SDS011;10781;50.928;4.440;2022-09-13T14:58:12;28.77;;;26.88;;
21245;SDS011;10781;50.928;4.440;2022-09-13T15:00:50;27.55;;;25.70;;
21245;SDS011;10781;50.928;4.440;2022-09-13T15:03:20;27.40;;;25.35;;
21245;SDS011;10781;50.928;4.440;2022-09-13T15:05:53;27.20;;;25.25;;
21245;SDS011;10781;50.928;4.440;2022-09-13T15:10:59;27.35;;;25.40;;
21245;SDS011;10781;50.928;4.440;2022-09-13T15:13:26;28.08;;;26.25;;
21245;SDS011;10781;50.928;4.440;2022-09-13T15:15:52;27.60;;;25.70;;
21245;SDS011;10781;50.928;4.440;2022-09-13T15:23:26;28.67;;;26.88;;
21245;SDS011;10781;50.928;4.440;2022-09-13T15:26:39;29.60;;;27.52;;
21245;SDS011;10781;50.928;4.440;2022-09-13T15:28:53;26.77;;;25.08;;
21245;SDS011;10781;50.928;4.440;2022-09-13T15:31:30;30.70;;;28.63;;
21245;SDS011;10781;50.928;4.440;2022-09-13T15:36:42;29.58;;;27.70;;
21245;SDS011;10781;50.928;4.440;2022-09-13T15:39:26;29.42;;;27.33;;
21245;SDS011;10781;50.928;4.440;2022-09-13T15:44:22;30.60;;;28.27;;
21245;SDS011;10781;50.928;4.440;2022-09-13T15:46:55;29.02;;;27.17;;
21245;SDS011;10781;50.928;4.440;2022-09-13T15:49:26;30.55;;;28.45;;
21245;SDS011;10781;50.928;4.440;2022-09-13T15:51:54;30.80;;;28.70;;
21245;SDS011;10781;50.928;4.440;2022-09-13T15:54:21;32.17;;;29.88;;
21245;SDS011;10781;50.928;4.440;2022-09-13T15:56:47;30.58;;;28.65;;
21245;SDS011;10781;50.928;4.440;2022-09-13T15:59:16;30.00;;;27.95;;
21245;SDS011;10781;50.928;4.440;2022-09-13T16:01:43;30.05;;;28.00;;
21245;SDS011;10781;50.928;4.440;2022-09-13T16:04:11;30.30;;;28.27;;
21245;SDS011;10781;50.928;4.440;2022-09-13T16:06:36;31.17;;;29.08;;
21245;SDS011;10781;50.928;4.440;2022-09-13T16:09:15;30.75;;;28.52;;
21245;SDS011;10781;50.928;4.440;2022-09-13T16:11:45;31.92;;;29.63;;
21245;SDS011;10781;50.928;4.440;2022-09-13T16:14:13;32.30;;;29.80;;
21245;SDS011;10781;50.928;4.440;2022-09-13T16:16:39;31.83;;;29.73;;
21245;SDS011;10781;50.928;4.440;2022-09-13T16:19:05;31.55;;;29.25;;
21245;SDS011;10781;50.928;4.440;2022-09-13T16:21:31;31.67;;;29.58;;
21245;SDS011;10781;50.928;4.440;2022-09-13T16:23:56;33.35;;;30.85;;
21245;SDS011;10781;50.928;4.440;2022-09-13T16:26:23;32.45;;;30.33;;
21245;SDS011;10781;50.928;4.440;2022-09-13T16:29:01;33.03;;;30.50;;
21245;SDS011;10781;50.928;4.440;2022-09-13T16:31:26;32.70;;;30.48;;
21245;SDS011;10781;50.928;4.440;2022-09-13T16:33:52;31.85;;;29.45;;
21245;SDS011;10781;50.928;4.440;2022-09-13T16:36:18;32.70;;;30.50;;
21245;SDS011;10781;50.928;4.440;2022-09-13T16:38:43;33.03;;;30.63;;
21245;SDS011;10781;50.928;4.440;2022-09-13T16:41:09;32.53;;;30.00;;
21245;SDS011;10781;50.928;4.440;2022-09-13T16:43:38;33.15;;;30.65;;
21245;SDS011;10781;50.928;4.440;2022-09-13T16:46:05;33.53;;;31.02;;
21245;SDS011;10781;50.928;4.440;2022-09-13T16:48:32;32.63;;;30.52;;
21245;SDS011;10781;50.928;4.440;2022-09-13T16:51:05;38.95;;;36.03;;
21245;SDS011;10781;50.928;4.440;2022-09-13T16:53:34;36.58;;;33.97;;
21245;SDS011;10781;50.928;4.440;2022-09-13T16:56:10;34.08;;;31.67;;
21245;SDS011;10781;50.928;4.440;2022-09-13T16:58:37;34.25;;;31.83;;
21245;SDS011;10781;50.928;4.440;2022-09-13T17:01:04;34.30;;;31.73;;
21245;SDS011;10781;50.928;4.440;2022-09-13T17:03:31;35.17;;;32.67;;
21245;SDS011;10781;50.928;4.440;2022-09-13T17:05:59;35.55;;;33.03;;
21245;SDS011;10781;50.928;4.440;2022-09-13T17:08:25;36.95;;;34.50;;
21245;SDS011;10781;50.928;4.440;2022-09-13T17:10:51;35.75;;;33.20;;
21245;SDS011;10781;50.928;4.440;2022-09-13T17:13:17;36.35;;;34.00;;
21245;SDS011;10781;50.928;4.440;2022-09-13T17:15:43;36.67;;;33.63;;
21245;SDS011;10781;50.928;4.440;2022-09-13T17:18:08;36.13;;;33.60;;
21245;SDS011;10781;50.928;4.440;2022-09-13T17:20:34;34.45;;;31.92;;
21245;SDS011;10781;50.928;4.440;2022-09-13T17:23:00;34.08;;;31.70;;
21245;SDS011;10781;50.928;4.440;2022-09-13T17:25:26;34.88;;;32.10;;
21245;SDS011;10781;50.928;4.440;2022-09-13T17:27:51;35.10;;;32.50;;
21245;SDS011;10781;50.928;4.440;2022-09-13T17:30:17;35.60;;;33.00;;
21245;SDS011;10781;50.928;4.440;2022-09-13T17:32:43;35.85;;;33.05;;
21245;SDS011;10781;50.928;4.440;2022-09-13T17:35:08;36.38;;;33.72;;
21245;SDS011;10781;50.928;4.440;2022-09-13T17:37:35;38.50;;;35.35;;
21245;SDS011;10781;50.928;4.440;2022-09-13T17:40:01;38.22;;;35.03;;
21245;SDS011;10781;50.928;4.440;2022-09-13T17:42:27;39.63;;;36.60;;
21245;SDS011;10781;50.928;4.440;2022-09-13T17:44:52;39.15;;;36.25;;
21245;SDS011;10781;50.928;4.440;2022-09-13T17:47:18;36.42;;;33.75;;
21245;SDS011;10781;50.928;4.440;2022-09-13T17:49:44;37.40;;;34.30;;
21245;SDS011;10781;50.928;4.440;2022-09-13T17:52:11;35.90;;;33.40;;
21245;SDS011;10781;50.928;4.440;2022-09-13T17:54:36;37.08;;;34.28;;
21245;SDS011;10781;50.928;4.440;2022-09-13T17:57:02;38.65;;;35.85;;
21245;SDS011;10781;50.928;4.440;2022-09-13T17:59:28;38.47;;;35.33;;
21245;SDS011;10781;50.928;4.440;2022-09-13T18:01:56;35.58;;;33.08;;
21245;SDS011;10781;50.928;4.440;2022-09-13T18:04:24;37.80;;;34.78;;
21245;SDS011;10781;50.928;4.440;2022-09-13T18:06:50;36.95;;;34.20;;
21245;SDS011;10781;50.928;4.440;2022-09-13T18:09:17;37.17;;;34.35;;
21245;SDS011;10781;50.928;4.440;2022-09-13T18:11:43;39.08;;;35.55;;
21245;SDS011;10781;50.928;4.440;2022-09-13T18:14:13;36.83;;;34.17;;
21245;SDS011;10781;50.928;4.440;2022-09-13T18:16:40;36.92;;;34.13;;
21245;SDS011;10781;50.928;4.440;2022-09-13T18:19:07;38.20;;;35.38;;
21245;SDS011;10781;50.928;4.440;2022-09-13T18:21:33;36.78;;;33.90;;
21245;SDS011;10781;50.928;4.440;2022-09-13T18:23:59;36.13;;;33.20;;